Terminal Aerodrome Forecast
Issued by NWS Wilmington, OH

Current Version | Previous Version | Text Only | Print | Product List | Glossary Off
Versions: 1 2 3 4 5 6 7 8 9 10 11 12 13 14 15 16 17 18 19 20 21 22 23 24 25 26 27 28 29

000
FTUS41 KILN 131400 AAA
TAFCVG
TAF AMD
KCVG 131456Z 1315/1418 20018G30KT P6SM SCT040 BKN200
     FM132300 18014G22KT P6SM SCT050 BKN150
     FM141200 18016G25KT P6SM VCSH BKN050 OVC120=

USA.gov is the U.S. government's official web portal to all federal, state and local government web resources and services.